sensor_id;sensor_type;location;lat;lon;timestamp;P1;durP1;ratioP1;P2;durP2;ratioP2
4794;SDS011;2411;47.060;15.064;2022-11-15T00:00:58;16.67;;;9.73;;
4794;SDS011;2411;47.060;15.064;2022-11-15T00:03:26;12.40;;;9.70;;
4794;SDS011;2411;47.060;15.064;2022-11-15T00:05:54;9.27;;;8.33;;
4794;SDS011;2411;47.060;15.064;2022-11-15T00:08:21;13.43;;;10.13;;
4794;SDS011;2411;47.060;15.064;2022-11-15T00:10:55;11.30;;;9.97;;
4794;SDS011;2411;47.060;15.064;2022-11-15T00:13:23;14.43;;;10.87;;
4794;SDS011;2411;47.060;15.064;2022-11-15T00:15:50;14.23;;;10.27;;
4794;SDS011;2411;47.060;15.064;2022-11-15T00:18:18;14.37;;;11.67;;
4794;SDS011;2411;47.060;15.064;2022-11-15T00:20:45;15.00;;;12.23;;
4794;SDS011;2411;47.060;15.064;2022-11-15T00:23:13;19.27;;;12.80;;
4794;SDS011;2411;47.060;15.064;2022-11-15T00:25:40;15.20;;;11.33;;
4794;SDS011;2411;47.060;15.064;2022-11-15T00:28:07;16.27;;;10.90;;
4794;SDS011;2411;47.060;15.064;2022-11-15T00:30:34;11.20;;;9.40;;
4794;SDS011;2411;47.060;15.064;2022-11-15T00:33:02;15.43;;;11.73;;
4794;SDS011;2411;47.060;15.064;2022-11-15T00:35:33;13.77;;;11.03;;
4794;SDS011;2411;47.060;15.064;2022-11-15T00:38:02;14.13;;;9.93;;
4794;SDS011;2411;47.060;15.064;2022-11-15T00:40:29;12.47;;;8.33;;
4794;SDS011;2411;47.060;15.064;2022-11-15T00:42:57;9.87;;;7.60;;
4794;SDS011;2411;47.060;15.064;2022-11-15T00:45:24;10.90;;;8.63;;
4794;SDS011;2411;47.060;15.064;2022-11-15T00:47:52;11.70;;;9.77;;
4794;SDS011;2411;47.060;15.064;2022-11-15T00:50:19;10.83;;;9.00;;
4794;SDS011;2411;47.060;15.064;2022-11-15T00:52:46;13.37;;;9.83;;
4794;SDS011;2411;47.060;15.064;2022-11-15T00:55:15;11.17;;;8.57;;
4794;SDS011;2411;47.060;15.064;2022-11-15T00:57:43;11.80;;;8.20;;
4794;SDS011;2411;47.060;15.064;2022-11-15T01:00:11;6.10;;;5.53;;
4794;SDS011;2411;47.060;15.064;2022-11-15T01:02:39;6.50;;;5.87;;
4794;SDS011;2411;47.060;15.064;2022-11-15T01:05:06;8.00;;;7.00;;
4794;SDS011;2411;47.060;15.064;2022-11-15T01:07:34;8.07;;;7.20;;
4794;SDS011;2411;47.060;15.064;2022-11-15T01:10:04;8.80;;;7.90;;
4794;SDS011;2411;47.060;15.064;2022-11-15T01:12:31;9.00;;;7.10;;
4794;SDS011;2411;47.060;15.064;2022-11-15T01:14:59;10.80;;;9.30;;
4794;SDS011;2411;47.060;15.064;2022-11-15T01:17:26;10.67;;;9.10;;
4794;SDS011;2411;47.060;15.064;2022-11-15T01:19:53;12.50;;;9.23;;
4794;SDS011;2411;47.060;15.064;2022-11-15T01:22:20;10.13;;;9.13;;
4794;SDS011;2411;47.060;15.064;2022-11-15T01:24:49;11.83;;;8.60;;
4794;SDS011;2411;47.060;15.064;2022-11-15T01:27:17;13.63;;;10.50;;
4794;SDS011;2411;47.060;15.064;2022-11-15T01:29:44;10.50;;;8.87;;
4794;SDS011;2411;47.060;15.064;2022-11-15T01:32:11;15.00;;;9.30;;
4794;SDS011;2411;47.060;15.064;2022-11-15T01:34:38;12.37;;;9.90;;
4794;SDS011;2411;47.060;15.064;2022-11-15T01:37:06;14.80;;;10.80;;
4794;SDS011;2411;47.060;15.064;2022-11-15T01:39:33;38.63;;;12.50;;
4794;SDS011;2411;47.060;15.064;2022-11-15T01:42:00;33.53;;;13.07;;
4794;SDS011;2411;47.060;15.064;2022-11-15T01:47:01;49.23;;;15.07;;
4794;SDS011;2411;47.060;15.064;2022-11-15T01:49:34;80.83;;;17.00;;
4794;SDS011;2411;47.060;15.064;2022-11-15T01:52:03;40.17;;;15.20;;
4794;SDS011;2411;47.060;15.064;2022-11-15T01:54:35;87.43;;;18.17;;
4794;SDS011;2411;47.060;15.064;2022-11-15T01:57:04;58.83;;;17.90;;
4794;SDS011;2411;47.060;15.064;2022-11-15T01:59:34;40.03;;;18.27;;
4794;SDS011;2411;47.060;15.064;2022-11-15T02:02:03;24.83;;;16.40;;
4794;SDS011;2411;47.060;15.064;2022-11-15T02:04:32;24.90;;;16.30;;
4794;SDS011;2411;47.060;15.064;2022-11-15T02:07:01;24.63;;;17.90;;
4794;SDS011;2411;47.060;15.064;2022-11-15T02:09:31;25.40;;;16.97;;
4794;SDS011;2411;47.060;15.064;2022-11-15T02:11:58;63.00;;;18.83;;
4794;SDS011;2411;47.060;15.064;2022-11-15T02:14:26;45.13;;;16.43;;
4794;SDS011;2411;47.060;15.064;2022-11-15T02:17:02;21.03;;;14.87;;
4794;SDS011;2411;47.060;15.064;2022-11-15T02:37:21;23.00;;;15.00;;
4794;SDS011;2411;47.060;15.064;2022-11-15T02:40:11;25.80;;;15.80;;
4794;SDS011;2411;47.060;15.064;2022-11-15T02:43:10;24.67;;;13.37;;
4794;SDS011;2411;47.060;15.064;2022-11-15T02:46:14;22.53;;;14.33;;
4794;SDS011;2411;47.060;15.064;2022-11-15T02:48:44;52.07;;;15.73;;
4794;SDS011;2411;47.060;15.064;2022-11-15T02:51:13;114.17;;;16.70;;
4794;SDS011;2411;47.060;15.064;2022-11-15T02:53:41;112.73;;;15.87;;
4794;SDS011;2411;47.060;15.064;2022-11-15T02:56:08;131.30;;;16.13;;
4794;SDS011;2411;47.060;15.064;2022-11-15T03:06:50;171.10;;;15.50;;
4794;SDS011;2411;47.060;15.064;2022-11-15T03:12:03;199.33;;;17.33;;
4794;SDS011;2411;47.060;15.064;2022-11-15T03:15:14;159.77;;;18.10;;
4794;SDS011;2411;47.060;15.064;2022-11-15T03:17:36;204.13;;;15.40;;
4794;SDS011;2411;47.060;15.064;2022-11-15T03:20:07;137.60;;;16.30;;
4794;SDS011;2411;47.060;15.064;2022-11-15T03:22:37;111.40;;;14.57;;
4794;SDS011;2411;47.060;15.064;2022-11-15T03:25:08;103.13;;;12.20;;
4794;SDS011;2411;47.060;15.064;2022-11-15T03:27:40;67.57;;;13.40;;
4794;SDS011;2411;47.060;15.064;2022-11-15T03:30:13;43.90;;;11.47;;
4794;SDS011;2411;47.060;15.064;2022-11-15T03:32:59;20.90;;;12.20;;
4794;SDS011;2411;47.060;15.064;2022-11-15T03:35:30;16.57;;;12.77;;
4794;SDS011;2411;47.060;15.064;2022-11-15T03:38:19;13.63;;;10.23;;
4794;SDS011;2411;47.060;15.064;2022-11-15T03:46:01;13.70;;;11.50;;
4794;SDS011;2411;47.060;15.064;2022-11-15T03:48:37;18.53;;;12.70;;
4794;SDS011;2411;47.060;15.064;2022-11-15T03:51:10;17.30;;;12.70;;
4794;SDS011;2411;47.060;15.064;2022-11-15T03:53:37;21.93;;;12.70;;
4794;SDS011;2411;47.060;15.064;2022-11-15T03:56:05;18.30;;;12.60;;
4794;SDS011;2411;47.060;15.064;2022-11-15T03:58:32;20.47;;;13.33;;
4794;SDS011;2411;47.060;15.064;2022-11-15T04:00:59;18.50;;;12.70;;
4794;SDS011;2411;47.060;15.064;2022-11-15T04:03:27;19.60;;;12.50;;
4794;SDS011;2411;47.060;15.064;2022-11-15T04:05:55;18.03;;;12.93;;
4794;SDS011;2411;47.060;15.064;2022-11-15T04:08:22;16.97;;;12.30;;
4794;SDS011;2411;47.060;15.064;2022-11-15T04:10:49;23.83;;;12.93;;
4794;SDS011;2411;47.060;15.064;2022-11-15T04:13:16;18.73;;;12.07;;
4794;SDS011;2411;47.060;15.064;2022-11-15T04:15:43;18.40;;;13.10;;
4794;SDS011;2411;47.060;15.064;2022-11-15T04:18:11;51.77;;;13.87;;
4794;SDS011;2411;47.060;15.064;2022-11-15T04:20:38;19.37;;;12.87;;
4794;SDS011;2411;47.060;15.064;2022-11-15T04:23:24;23.07;;;14.50;;
4794;SDS011;2411;47.060;15.064;2022-11-15T04:26:10;19.37;;;13.50;;
4794;SDS011;2411;47.060;15.064;2022-11-15T04:28:40;17.80;;;12.40;;
4794;SDS011;2411;47.060;15.064;2022-11-15T04:31:27;19.10;;;11.57;;
4794;SDS011;2411;47.060;15.064;2022-11-15T04:33:55;14.30;;;11.60;;
4794;SDS011;2411;47.060;15.064;2022-11-15T04:36:22;21.50;;;12.30;;
4794;SDS011;2411;47.060;15.064;2022-11-15T04:39:08;16.10;;;10.97;;
4794;SDS011;2411;47.060;15.064;2022-11-15T04:41:35;19.80;;;13.17;;
4794;SDS011;2411;47.060;15.064;2022-11-15T04:44:03;19.40;;;12.70;;
4794;SDS011;2411;47.060;15.064;2022-11-15T04:46:30;16.00;;;12.67;;
4794;SDS011;2411;47.060;15.064;2022-11-15T04:48:57;13.20;;;9.97;;
4794;SDS011;2411;47.060;15.064;2022-11-15T04:51:25;12.03;;;10.20;;
4794;SDS011;2411;47.060;15.064;2022-11-15T04:53:52;11.53;;;9.90;;
4794;SDS011;2411;47.060;15.064;2022-11-15T04:56:19;17.40;;;10.47;;
4794;SDS011;2411;47.060;15.064;2022-11-15T04:58:49;15.30;;;11.10;;
4794;SDS011;2411;47.060;15.064;2022-11-15T05:01:16;14.73;;;10.37;;
4794;SDS011;2411;47.060;15.064;2022-11-15T05:03:44;13.13;;;10.20;;
4794;SDS011;2411;47.060;15.064;2022-11-15T05:06:30;13.73;;;9.73;;
4794;SDS011;2411;47.060;15.064;2022-11-15T05:08:57;15.80;;;10.40;;
4794;SDS011;2411;47.060;15.064;2022-11-15T05:11:25;11.10;;;8.83;;
4794;SDS011;2411;47.060;15.064;2022-11-15T05:13:53;14.13;;;9.57;;
4794;SDS011;2411;47.060;15.064;2022-11-15T05:16:21;15.13;;;10.30;;
4794;SDS011;2411;47.060;15.064;2022-11-15T05:18:54;11.80;;;9.30;;
4794;SDS011;2411;47.060;15.064;2022-11-15T05:21:21;11.43;;;9.77;;
4794;SDS011;2411;47.060;15.064;2022-11-15T05:23:49;13.70;;;9.23;;
4794;SDS011;2411;47.060;15.064;2022-11-15T05:26:16;12.37;;;9.37;;
4794;SDS011;2411;47.060;15.064;2022-11-15T05:28:44;14.20;;;10.33;;
4794;SDS011;2411;47.060;15.064;2022-11-15T05:31:12;12.53;;;9.50;;
4794;SDS011;2411;47.060;15.064;2022-11-15T05:33:41;15.90;;;10.27;;
4794;SDS011;2411;47.060;15.064;2022-11-15T05:36:15;17.93;;;11.07;;
4794;SDS011;2411;47.060;15.064;2022-11-15T05:38:52;17.33;;;11.07;;
4794;SDS011;2411;47.060;15.064;2022-11-15T05:41:21;14.97;;;11.00;;
4794;SDS011;2411;47.060;15.064;2022-11-15T05:43:53;13.53;;;11.13;;
4794;SDS011;2411;47.060;15.064;2022-11-15T05:46:20;11.27;;;9.83;;
4794;SDS011;2411;47.060;15.064;2022-11-15T05:48:48;17.23;;;11.30;;
4794;SDS011;2411;47.060;15.064;2022-11-15T05:51:18;17.30;;;10.97;;
4794;SDS011;2411;47.060;15.064;2022-11-15T05:53:47;13.73;;;11.30;;
4794;SDS011;2411;47.060;15.064;2022-11-15T05:56:15;15.10;;;11.07;;
4794;SDS011;2411;47.060;15.064;2022-11-15T05:58:43;18.00;;;11.80;;
4794;SDS011;2411;47.060;15.064;2022-11-15T06:01:10;15.73;;;11.43;;
4794;SDS011;2411;47.060;15.064;2022-11-15T06:03:37;17.67;;;11.07;;
4794;SDS011;2411;47.060;15.064;2022-11-15T06:06:05;13.57;;;10.67;;
4794;SDS011;2411;47.060;15.064;2022-11-15T06:08:34;14.60;;;9.00;;
4794;SDS011;2411;47.060;15.064;2022-11-15T06:11:05;18.13;;;10.83;;
4794;SDS011;2411;47.060;15.064;2022-11-15T06:13:33;13.47;;;10.90;;
4794;SDS011;2411;47.060;15.064;2022-11-15T06:16:01;14.73;;;10.67;;
4794;SDS011;2411;47.060;15.064;2022-11-15T06:18:28;11.30;;;9.57;;
4794;SDS011;2411;47.060;15.064;2022-11-15T06:21:00;15.43;;;11.80;;
4794;SDS011;2411;47.060;15.064;2022-11-15T06:23:27;11.90;;;10.47;;
4794;SDS011;2411;47.060;15.064;2022-11-15T06:25:58;18.00;;;11.00;;
4794;SDS011;2411;47.060;15.064;2022-11-15T06:28:30;15.33;;;11.30;;
4794;SDS011;2411;47.060;15.064;2022-11-15T06:31:05;20.70;;;12.53;;
4794;SDS011;2411;47.060;15.064;2022-11-15T06:33:34;17.50;;;12.03;;
4794;SDS011;2411;47.060;15.064;2022-11-15T06:36:02;13.40;;;11.67;;
4794;SDS011;2411;47.060;15.064;2022-11-15T06:38:30;14.93;;;11.80;;
4794;SDS011;2411;47.060;15.064;2022-11-15T06:41:01;17.03;;;12.60;;
4794;SDS011;2411;47.060;15.064;2022-11-15T06:43:30;18.57;;;13.00;;
4794;SDS011;2411;47.060;15.064;2022-11-15T06:45:58;17.10;;;13.30;;
4794;SDS011;2411;47.060;15.064;2022-11-15T06:48:26;20.97;;;13.87;;
4794;SDS011;2411;47.060;15.064;2022-11-15T06:50:54;18.80;;;13.03;;
4794;SDS011;2411;47.060;15.064;2022-11-15T06:53:23;16.67;;;12.80;;
4794;SDS011;2411;47.060;15.064;2022-11-15T06:55:51;18.23;;;13.10;;
4794;SDS011;2411;47.060;15.064;2022-11-15T06:58:21;19.80;;;13.57;;
4794;SDS011;2411;47.060;15.064;2022-11-15T07:00:48;26.47;;;15.70;;
4794;SDS011;2411;47.060;15.064;2022-11-15T07:03:15;21.90;;;15.80;;
4794;SDS011;2411;47.060;15.064;2022-11-15T07:05:50;21.33;;;15.30;;
4794;SDS011;2411;47.060;15.064;2022-11-15T07:08:21;32.30;;;16.47;;
4794;SDS011;2411;47.060;15.064;2022-11-15T07:10:50;33.60;;;17.60;;
4794;SDS011;2411;47.060;15.064;2022-11-15T07:13:17;37.03;;;17.80;;
4794;SDS011;2411;47.060;15.064;2022-11-15T07:15:44;37.27;;;19.97;;
4794;SDS011;2411;47.060;15.064;2022-11-15T07:18:11;84.33;;;20.90;;
4794;SDS011;2411;47.060;15.064;2022-11-15T07:20:38;69.73;;;22.00;;
4794;SDS011;2411;47.060;15.064;2022-11-15T07:23:06;37.10;;;21.90;;
4794;SDS011;2411;47.060;15.064;2022-11-15T07:25:33;34.20;;;20.77;;
4794;SDS011;2411;47.060;15.064;2022-11-15T07:28:01;31.30;;;20.10;;
4794;SDS011;2411;47.060;15.064;2022-11-15T07:30:29;36.33;;;21.80;;
4794;SDS011;2411;47.060;15.064;2022-11-15T07:32:57;30.37;;;19.93;;
4794;SDS011;2411;47.060;15.064;2022-11-15T07:35:25;32.07;;;20.80;;
4794;SDS011;2411;47.060;15.064;2022-11-15T07:37:54;29.60;;;19.77;;
4794;SDS011;2411;47.060;15.064;2022-11-15T07:40:22;34.63;;;20.63;;
4794;SDS011;2411;47.060;15.064;2022-11-15T07:42:50;31.47;;;19.13;;
4794;SDS011;2411;47.060;15.064;2022-11-15T07:45:20;32.60;;;20.73;;
4794;SDS011;2411;47.060;15.064;2022-11-15T07:47:49;27.17;;;19.27;;
4794;SDS011;2411;47.060;15.064;2022-11-15T07:50:17;31.80;;;19.90;;
4794;SDS011;2411;47.060;15.064;2022-11-15T07:52:45;30.60;;;20.03;;
4794;SDS011;2411;47.060;15.064;2022-11-15T07:55:13;32.67;;;19.53;;
4794;SDS011;2411;47.060;15.064;2022-11-15T07:57:40;37.40;;;19.20;;
4794;SDS011;2411;47.060;15.064;2022-11-15T08:00:08;26.80;;;17.50;;
4794;SDS011;2411;47.060;15.064;2022-11-15T08:02:35;26.63;;;18.53;;
4794;SDS011;2411;47.060;15.064;2022-11-15T08:05:03;22.37;;;16.93;;
4794;SDS011;2411;47.060;15.064;2022-11-15T08:07:30;32.33;;;19.77;;
4794;SDS011;2411;47.060;15.064;2022-11-15T08:09:58;29.10;;;19.07;;
4794;SDS011;2411;47.060;15.064;2022-11-15T08:12:28;36.17;;;19.33;;
4794;SDS011;2411;47.060;15.064;2022-11-15T08:14:55;37.17;;;20.97;;
4794;SDS011;2411;47.060;15.064;2022-11-15T08:17:23;31.77;;;19.53;;
4794;SDS011;2411;47.060;15.064;2022-11-15T08:19:51;27.67;;;20.20;;
4794;SDS011;2411;47.060;15.064;2022-11-15T08:22:18;23.50;;;18.63;;
4794;SDS011;2411;47.060;15.064;2022-11-15T08:24:46;37.57;;;19.87;;
4794;SDS011;2411;47.060;15.064;2022-11-15T08:27:13;32.03;;;20.50;;
4794;SDS011;2411;47.060;15.064;2022-11-15T08:29:43;27.50;;;17.97;;
4794;SDS011;2411;47.060;15.064;2022-11-15T08:32:11;24.53;;;17.63;;
4794;SDS011;2411;47.060;15.064;2022-11-15T08:34:38;29.67;;;19.00;;
4794;SDS011;2411;47.060;15.064;2022-11-15T08:37:06;29.53;;;17.17;;
4794;SDS011;2411;47.060;15.064;2022-11-15T08:39:33;25.07;;;16.80;;
4794;SDS011;2411;47.060;15.064;2022-11-15T08:42:00;22.33;;;16.03;;
4794;SDS011;2411;47.060;15.064;2022-11-15T08:44:27;21.60;;;16.13;;
4794;SDS011;2411;47.060;15.064;2022-11-15T08:46:54;22.60;;;16.03;;
4794;SDS011;2411;47.060;15.064;2022-11-15T08:49:22;19.80;;;15.53;;
4794;SDS011;2411;47.060;15.064;2022-11-15T08:51:49;19.93;;;16.10;;
4794;SDS011;2411;47.060;15.064;2022-11-15T08:54:16;16.73;;;13.77;;
4794;SDS011;2411;47.060;15.064;2022-11-15T08:56:43;20.93;;;14.27;;
4794;SDS011;2411;47.060;15.064;2022-11-15T08:59:10;21.80;;;14.57;;
4794;SDS011;2411;47.060;15.064;2022-11-15T09:01:37;18.97;;;15.00;;
4794;SDS011;2411;47.060;15.064;2022-11-15T09:04:05;22.70;;;16.63;;
4794;SDS011;2411;47.060;15.064;2022-11-15T09:06:32;24.03;;;15.20;;
4794;SDS011;2411;47.060;15.064;2022-11-15T09:09:00;22.87;;;16.40;;
4794;SDS011;2411;47.060;15.064;2022-11-15T09:11:27;18.13;;;15.63;;
4794;SDS011;2411;47.060;15.064;2022-11-15T09:13:55;20.33;;;13.73;;
4794;SDS011;2411;47.060;15.064;2022-11-15T09:16:22;15.90;;;13.60;;
4794;SDS011;2411;47.060;15.064;2022-11-15T09:18:49;17.50;;;13.00;;
4794;SDS011;2411;47.060;15.064;2022-11-15T09:21:17;18.10;;;12.57;;
4794;SDS011;2411;47.060;15.064;2022-11-15T09:23:44;17.50;;;12.80;;
4794;SDS011;2411;47.060;15.064;2022-11-15T09:26:12;20.17;;;14.47;;
4794;SDS011;2411;47.060;15.064;2022-11-15T09:28:39;19.70;;;13.10;;
4794;SDS011;2411;47.060;15.064;2022-11-15T09:31:08;16.97;;;13.37;;
4794;SDS011;2411;47.060;15.064;2022-11-15T09:33:36;18.90;;;13.10;;
4794;SDS011;2411;47.060;15.064;2022-11-15T09:36:04;20.40;;;13.43;;
4794;SDS011;2411;47.060;15.064;2022-11-15T09:38:33;17.60;;;12.90;;
4794;SDS011;2411;47.060;15.064;2022-11-15T09:48:54;14.00;;;12.50;;
4794;SDS011;2411;47.060;15.064;2022-11-15T09:54:09;15.67;;;11.13;;
4794;SDS011;2411;47.060;15.064;2022-11-15T09:57:14;17.00;;;13.47;;
4794;SDS011;2411;47.060;15.064;2022-11-15T10:02:56;24.00;;;14.47;;
4794;SDS011;2411;47.060;15.064;2022-11-15T10:05:25;21.40;;;12.80;;
4794;SDS011;2411;47.060;15.064;2022-11-15T10:08:10;22.17;;;13.80;;
4794;SDS011;2411;47.060;15.064;2022-11-15T10:10:54;20.67;;;13.87;;
4794;SDS011;2411;47.060;15.064;2022-11-15T10:13:47;18.20;;;12.53;;
4794;SDS011;2411;47.060;15.064;2022-11-15T10:16:23;19.40;;;13.73;;
4794;SDS011;2411;47.060;15.064;2022-11-15T10:24:34;20.40;;;15.83;;
4794;SDS011;2411;47.060;15.064;2022-11-15T10:27:10;23.93;;;15.70;;
4794;SDS011;2411;47.060;15.064;2022-11-15T10:29:47;22.13;;;14.57;;
4794;SDS011;2411;47.060;15.064;2022-11-15T10:32:18;24.43;;;15.67;;
4794;SDS011;2411;47.060;15.064;2022-11-15T10:34:47;19.77;;;15.00;;
4794;SDS011;2411;47.060;15.064;2022-11-15T10:37:26;18.30;;;14.80;;
4794;SDS011;2411;47.060;15.064;2022-11-15T10:40:05;21.77;;;15.13;;
4794;SDS011;2411;47.060;15.064;2022-11-15T10:42:41;19.00;;;15.20;;
4794;SDS011;2411;47.060;15.064;2022-11-15T10:45:28;27.23;;;16.80;;
4794;SDS011;2411;47.060;15.064;2022-11-15T10:50:40;24.40;;;16.33;;
4794;SDS011;2411;47.060;15.064;2022-11-15T10:55:46;21.53;;;16.97;;
4794;SDS011;2411;47.060;15.064;2022-11-15T11:01:09;23.00;;;16.67;;
4794;SDS011;2411;47.060;15.064;2022-11-15T11:03:37;21.07;;;15.90;;
4794;SDS011;2411;47.060;15.064;2022-11-15T11:06:15;22.10;;;16.43;;
4794;SDS011;2411;47.060;15.064;2022-11-15T11:08:54;23.10;;;17.37;;
4794;SDS011;2411;47.060;15.064;2022-11-15T11:11:45;22.77;;;15.70;;
4794;SDS011;2411;47.060;15.064;2022-11-15T11:14:29;24.70;;;16.37;;
4794;SDS011;2411;47.060;15.064;2022-11-15T11:23:00;22.60;;;16.80;;
4794;SDS011;2411;47.060;15.064;2022-11-15T11:25:46;20.40;;;16.27;;
4794;SDS011;2411;47.060;15.064;2022-11-15T11:28:26;29.50;;;17.77;;
4794;SDS011;2411;47.060;15.064;2022-11-15T11:33:56;22.33;;;16.47;;
4794;SDS011;2411;47.060;15.064;2022-11-15T11:36:38;22.00;;;16.27;;
4794;SDS011;2411;47.060;15.064;2022-11-15T11:42:16;22.13;;;15.97;;
4794;SDS011;2411;47.060;15.064;2022-11-15T11:47:32;22.73;;;17.13;;
4794;SDS011;2411;47.060;15.064;2022-11-15T11:50:26;21.77;;;15.83;;
4794;SDS011;2411;47.060;15.064;2022-11-15T11:55:31;23.50;;;17.20;;
4794;SDS011;2411;47.060;15.064;2022-11-15T11:58:09;21.53;;;15.90;;
4794;SDS011;2411;47.060;15.064;2022-11-15T12:00:49;23.23;;;17.67;;
4794;SDS011;2411;47.060;15.064;2022-11-15T12:06:20;21.40;;;16.17;;
4794;SDS011;2411;47.060;15.064;2022-11-15T12:14:28;27.57;;;19.07;;
4794;SDS011;2411;47.060;15.064;2022-11-15T12:16:59;31.10;;;20.37;;
4794;SDS011;2411;47.060;15.064;2022-11-15T12:19:28;26.63;;;18.37;;
4794;SDS011;2411;47.060;15.064;2022-11-15T12:24:48;27.47;;;18.27;;
4794;SDS011;2411;47.060;15.064;2022-11-15T12:27:57;26.67;;;18.83;;
4794;SDS011;2411;47.060;15.064;2022-11-15T12:30:40;26.00;;;18.30;;
4794;SDS011;2411;47.060;15.064;2022-11-15T12:33:31;27.50;;;20.83;;
4794;SDS011;2411;47.060;15.064;2022-11-15T12:36:50;30.37;;;21.43;;
4794;SDS011;2411;47.060;15.064;2022-11-15T12:39:05;26.13;;;20.13;;
4794;SDS011;2411;47.060;15.064;2022-11-15T12:41:37;27.83;;;20.80;;
4794;SDS011;2411;47.060;15.064;2022-11-15T12:47:04;26.50;;;18.93;;
4794;SDS011;2411;47.060;15.064;2022-11-15T12:49:49;28.20;;;19.10;;
4794;SDS011;2411;47.060;15.064;2022-11-15T12:52:17;25.33;;;18.60;;
4794;SDS011;2411;47.060;15.064;2022-11-15T12:54:49;25.70;;;18.60;;
4794;SDS011;2411;47.060;15.064;2022-11-15T13:02:26;25.63;;;18.90;;
4794;SDS011;2411;47.060;15.064;2022-11-15T13:04:54;27.07;;;19.07;;
4794;SDS011;2411;47.060;15.064;2022-11-15T13:13:02;28.13;;;19.43;;
4794;SDS011;2411;47.060;15.064;2022-11-15T13:18:35;34.13;;;19.73;;
4794;SDS011;2411;47.060;15.064;2022-11-15T13:21:20;32.40;;;19.17;;
4794;SDS011;2411;47.060;15.064;2022-11-15T13:24:15;29.73;;;19.73;;
4794;SDS011;2411;47.060;15.064;2022-11-15T13:26:43;26.17;;;18.97;;
4794;SDS011;2411;47.060;15.064;2022-11-15T13:29:16;32.10;;;21.67;;
4794;SDS011;2411;47.060;15.064;2022-11-15T13:31:44;30.53;;;19.07;;
4794;SDS011;2411;47.060;15.064;2022-11-15T13:34:26;29.50;;;20.47;;
4794;SDS011;2411;47.060;15.064;2022-11-15T13:39:48;29.60;;;19.50;;
4794;SDS011;2411;47.060;15.064;2022-11-15T13:42:17;32.80;;;21.43;;
4794;SDS011;2411;47.060;15.064;2022-11-15T13:44:59;34.50;;;20.97;;
4794;SDS011;2411;47.060;15.064;2022-11-15T13:47:28;27.80;;;19.83;;
4794;SDS011;2411;47.060;15.064;2022-11-15T13:49:57;36.30;;;21.13;;
4794;SDS011;2411;47.060;15.064;2022-11-15T13:52:31;32.60;;;21.37;;
4794;SDS011;2411;47.060;15.064;2022-11-15T13:55:09;34.00;;;20.20;;
4794;SDS011;2411;47.060;15.064;2022-11-15T13:57:47;31.13;;;21.87;;
4794;SDS011;2411;47.060;15.064;2022-11-15T14:03:26;32.43;;;22.50;;
4794;SDS011;2411;47.060;15.064;2022-11-15T14:09:04;36.00;;;21.17;;
4794;SDS011;2411;47.060;15.064;2022-11-15T14:11:48;34.33;;;22.10;;
4794;SDS011;2411;47.060;15.064;2022-11-15T14:14:21;35.00;;;22.50;;
4794;SDS011;2411;47.060;15.064;2022-11-15T14:17:00;33.70;;;22.37;;
4794;SDS011;2411;47.060;15.064;2022-11-15T14:30:36;36.40;;;22.50;;
4794;SDS011;2411;47.060;15.064;2022-11-15T14:33:14;36.10;;;22.40;;
4794;SDS011;2411;47.060;15.064;2022-11-15T14:35:46;36.87;;;22.90;;
4794;SDS011;2411;47.060;15.064;2022-11-15T14:38:14;39.83;;;23.37;;
4794;SDS011;2411;47.060;15.064;2022-11-15T14:40:41;34.00;;;21.27;;
4794;SDS011;2411;47.060;15.064;2022-11-15T14:43:12;40.10;;;24.40;;
4794;SDS011;2411;47.060;15.064;2022-11-15T14:45:40;35.27;;;22.53;;
4794;SDS011;2411;47.060;15.064;2022-11-15T14:48:07;37.30;;;22.40;;
4794;SDS011;2411;47.060;15.064;2022-11-15T14:50:35;36.33;;;20.67;;
4794;SDS011;2411;47.060;15.064;2022-11-15T14:53:03;34.37;;;22.70;;
4794;SDS011;2411;47.060;15.064;2022-11-15T14:55:33;43.63;;;24.77;;
4794;SDS011;2411;47.060;15.064;2022-11-15T14:58:03;35.87;;;22.77;;
4794;SDS011;2411;47.060;15.064;2022-11-15T15:00:31;36.07;;;24.20;;
4794;SDS011;2411;47.060;15.064;2022-11-15T15:03:01;47.53;;;24.00;;
4794;SDS011;2411;47.060;15.064;2022-11-15T15:05:38;50.27;;;27.20;;
4794;SDS011;2411;47.060;15.064;2022-11-15T15:08:08;42.93;;;25.60;;
4794;SDS011;2411;47.060;15.064;2022-11-15T15:10:37;41.10;;;25.00;;
4794;SDS011;2411;47.060;15.064;2022-11-15T15:13:15;41.57;;;24.50;;
4794;SDS011;2411;47.060;15.064;2022-11-15T15:15:43;41.27;;;23.90;;
4794;SDS011;2411;47.060;15.064;2022-11-15T15:18:10;39.07;;;24.30;;
4794;SDS011;2411;47.060;15.064;2022-11-15T15:20:38;37.67;;;24.00;;
4794;SDS011;2411;47.060;15.064;2022-11-15T15:23:16;37.33;;;23.57;;
4794;SDS011;2411;47.060;15.064;2022-11-15T15:25:46;40.97;;;24.63;;
4794;SDS011;2411;47.060;15.064;2022-11-15T15:28:15;36.23;;;23.90;;
4794;SDS011;2411;47.060;15.064;2022-11-15T15:30:43;39.20;;;22.50;;
4794;SDS011;2411;47.060;15.064;2022-11-15T15:33:10;37.90;;;22.90;;
4794;SDS011;2411;47.060;15.064;2022-11-15T15:35:37;42.60;;;23.47;;
4794;SDS011;2411;47.060;15.064;2022-11-15T15:38:04;36.73;;;22.50;;
4794;SDS011;2411;47.060;15.064;2022-11-15T15:40:32;42.57;;;22.20;;
4794;SDS011;2411;47.060;15.064;2022-11-15T15:42:59;41.03;;;23.23;;
4794;SDS011;2411;47.060;15.064;2022-11-15T15:45:27;41.20;;;23.30;;
4794;SDS011;2411;47.060;15.064;2022-11-15T15:47:56;40.07;;;22.67;;
4794;SDS011;2411;47.060;15.064;2022-11-15T15:52:57;41.27;;;21.27;;
4794;SDS011;2411;47.060;15.064;2022-11-15T15:55:26;38.83;;;22.40;;
4794;SDS011;2411;47.060;15.064;2022-11-15T15:57:54;43.10;;;22.60;;
4794;SDS011;2411;47.060;15.064;2022-11-15T16:00:21;41.33;;;20.87;;
4794;SDS011;2411;47.060;15.064;2022-11-15T16:02:50;38.00;;;21.33;;
4794;SDS011;2411;47.060;15.064;2022-11-15T16:05:18;35.80;;;21.00;;
4794;SDS011;2411;47.060;15.064;2022-11-15T16:07:46;40.80;;;23.40;;
4794;SDS011;2411;47.060;15.064;2022-11-15T16:10:24;36.33;;;20.90;;
4794;SDS011;2411;47.060;15.064;2022-11-15T16:12:56;45.73;;;23.07;;
4794;SDS011;2411;47.060;15.064;2022-11-15T16:15:25;40.83;;;22.50;;
4794;SDS011;2411;47.060;15.064;2022-11-15T16:17:55;40.63;;;22.20;;
4794;SDS011;2411;47.060;15.064;2022-11-15T16:23:05;39.33;;;22.40;;
4794;SDS011;2411;47.060;15.064;2022-11-15T16:25:38;39.07;;;22.77;;
4794;SDS011;2411;47.060;15.064;2022-11-15T16:28:30;38.57;;;22.37;;
4794;SDS011;2411;47.060;15.064;2022-11-15T16:33:28;45.90;;;24.40;;
4794;SDS011;2411;47.060;15.064;2022-11-15T16:35:55;38.60;;;21.40;;
4794;SDS011;2411;47.060;15.064;2022-11-15T16:38:23;39.13;;;22.30;;
4794;SDS011;2411;47.060;15.064;2022-11-15T16:40:50;36.13;;;22.17;;
4794;SDS011;2411;47.060;15.064;2022-11-15T16:43:17;33.10;;;21.30;;
4794;SDS011;2411;47.060;15.064;2022-11-15T16:45:44;33.93;;;21.27;;
4794;SDS011;2411;47.060;15.064;2022-11-15T16:48:22;35.63;;;21.50;;
4794;SDS011;2411;47.060;15.064;2022-11-15T16:50:54;34.20;;;20.80;;
4794;SDS011;2411;47.060;15.064;2022-11-15T16:53:23;35.00;;;19.97;;
4794;SDS011;2411;47.060;15.064;2022-11-15T16:55:50;36.10;;;21.60;;
4794;SDS011;2411;47.060;15.064;2022-11-15T16:58:17;34.63;;;21.03;;
4794;SDS011;2411;47.060;15.064;2022-11-15T17:00:45;38.00;;;21.97;;
4794;SDS011;2411;47.060;15.064;2022-11-15T17:03:20;32.07;;;19.67;;
4794;SDS011;2411;47.060;15.064;2022-11-15T17:05:49;38.80;;;21.70;;
4794;SDS011;2411;47.060;15.064;2022-11-15T17:08:16;33.67;;;21.37;;
4794;SDS011;2411;47.060;15.064;2022-11-15T17:10:46;35.40;;;20.87;;
4794;SDS011;2411;47.060;15.064;2022-11-15T17:13:13;34.30;;;20.47;;
4794;SDS011;2411;47.060;15.064;2022-11-15T17:15:40;35.47;;;20.77;;